Norman, Indiana
Current Conditions -  °F | °C
As of 6:53 PM on Sunday 21 Dec 2014 (Local Time) from KBMG Reporting Station
Clear Clear  
Wind Chill: 25°   Ceiling: Unl
Heat Index: 31°   Visibility: 9mi
Dew Point: 27°   Wind: 6mph
Humidity: 85%   Direction: 120°ESE
Pressure: 30.11"   Gusts: NA
Location:  38.95°N, 86.27°W
Report Text: KBMG 212353Z 12005KT 9SM CLR M01/M03 A3011 RMK AO2 SLP206 T10061028 10039 21006 56009
Loading
Personal Weather Stations






























Interactive Weather Map New forecast layout! Learn more

10-Day Weather Forecast

Advertisements
Track Severe Weather on mobile